sensor_id;sensor_type;location;lat;lon;timestamp;temperature;humidity
13440;DHT22;6792;57.698;11.946;2023-07-31T00:01:00;22.50;50.70
13440;DHT22;6792;57.698;11.946;2023-07-31T00:03:29;22.40;50.20
13440;DHT22;6792;57.698;11.946;2023-07-31T00:05:58;22.50;50.90
13440;DHT22;6792;57.698;11.946;2023-07-31T00:08:27;22.50;51.00
13440;DHT22;6792;57.698;11.946;2023-07-31T00:10:57;22.50;51.00
13440;DHT22;6792;57.698;11.946;2023-07-31T00:13:26;22.40;51.00
13440;DHT22;6792;57.698;11.946;2023-07-31T00:15:55;22.40;51.10
13440;DHT22;6792;57.698;11.946;2023-07-31T00:18:24;22.40;51.20
13440;DHT22;6792;57.698;11.946;2023-07-31T00:20:53;22.30;51.30
13440;DHT22;6792;57.698;11.946;2023-07-31T00:23:22;22.30;51.50
13440;DHT22;6792;57.698;11.946;2023-07-31T00:25:55;22.30;51.60
13440;DHT22;6792;57.698;11.946;2023-07-31T00:28:30;22.30;52.00
13440;DHT22;6792;57.698;11.946;2023-07-31T00:31:03;22.30;51.80
13440;DHT22;6792;57.698;11.946;2023-07-31T00:33:35;22.20;51.80
13440;DHT22;6792;57.698;11.946;2023-07-31T00:36:08;22.10;51.90
13440;DHT22;6792;57.698;11.946;2023-07-31T00:38:40;22.10;51.50
13440;DHT22;6792;57.698;11.946;2023-07-31T00:41:13;22.10;52.10
13440;DHT22;6792;57.698;11.946;2023-07-31T00:43:42;22.10;52.20
13440;DHT22;6792;57.698;11.946;2023-07-31T00:46:24;22.10;52.10
13440;DHT22;6792;57.698;11.946;2023-07-31T00:49:00;22.10;52.20
13440;DHT22;6792;57.698;11.946;2023-07-31T00:51:36;22.10;52.10
13440;DHT22;6792;57.698;11.946;2023-07-31T00:54:18;22.10;52.10
13440;DHT22;6792;57.698;11.946;2023-07-31T00:56:48;22.10;52.10
13440;DHT22;6792;57.698;11.946;2023-07-31T00:59:29;22.10;52.10
13440;DHT22;6792;57.698;11.946;2023-07-31T01:02:00;22.00;52.10
13440;DHT22;6792;57.698;11.946;2023-07-31T01:04:37;22.00;51.70
13440;DHT22;6792;57.698;11.946;2023-07-31T01:10:02;22.00;51.70
13440;DHT22;6792;57.698;11.946;2023-07-31T01:12:33;22.00;52.20
13440;DHT22;6792;57.698;11.946;2023-07-31T01:15:09;22.00;52.20
13440;DHT22;6792;57.698;11.946;2023-07-31T01:17:50;22.00;52.40
13440;DHT22;6792;57.698;11.946;2023-07-31T01:20:26;22.00;51.90
13440;DHT22;6792;57.698;11.946;2023-07-31T01:23:32;22.00;51.90
13440;DHT22;6792;57.698;11.946;2023-07-31T01:26:07;22.00;52.00
13440;DHT22;6792;57.698;11.946;2023-07-31T01:28:50;21.90;52.70
13440;DHT22;6792;57.698;11.946;2023-07-31T01:31:25;21.80;52.20
13440;DHT22;6792;57.698;11.946;2023-07-31T01:34:02;21.80;52.20
13440;DHT22;6792;57.698;11.946;2023-07-31T01:36:39;21.80;52.60
13440;DHT22;6792;57.698;11.946;2023-07-31T01:41:55;21.80;52.20
13440;DHT22;6792;57.698;11.946;2023-07-31T01:44:29;23.00;52.80
13440;DHT22;6792;57.698;11.946;2023-07-31T01:46:59;21.80;52.90
13440;DHT22;6792;57.698;11.946;2023-07-31T01:49:32;21.80;52.80
13440;DHT22;6792;57.698;11.946;2023-07-31T01:52:08;21.80;52.80
13440;DHT22;6792;57.698;11.946;2023-07-31T01:54:39;21.80;52.90
13440;DHT22;6792;57.698;11.946;2023-07-31T01:57:13;21.70;52.40
13440;DHT22;6792;57.698;11.946;2023-07-31T01:59:46;21.70;52.50
13440;DHT22;6792;57.698;11.946;2023-07-31T02:02:20;21.70;52.60
13440;DHT22;6792;57.698;11.946;2023-07-31T02:04:53;21.60;52.70
13440;DHT22;6792;57.698;11.946;2023-07-31T02:07:22;21.70;53.30
13440;DHT22;6792;57.698;11.946;2023-07-31T02:09:59;21.70;53.10
13440;DHT22;6792;57.698;11.946;2023-07-31T02:12:36;21.70;53.20
13440;DHT22;6792;57.698;11.946;2023-07-31T02:15:13;21.70;53.20
13440;DHT22;6792;57.698;11.946;2023-07-31T02:17:48;23.10;53.20
13440;DHT22;6792;57.698;11.946;2023-07-31T02:20:21;21.70;53.10
13440;DHT22;6792;57.698;11.946;2023-07-31T02:22:53;21.70;52.70
13440;DHT22;6792;57.698;11.946;2023-07-31T02:25:24;21.80;53.20
13440;DHT22;6792;57.698;11.946;2023-07-31T02:27:55;21.80;52.70
13440;DHT22;6792;57.698;11.946;2023-07-31T02:30:28;21.70;52.70
13440;DHT22;6792;57.698;11.946;2023-07-31T02:33:05;21.80;53.20
13440;DHT22;6792;57.698;11.946;2023-07-31T02:35:37;21.70;52.70
13440;DHT22;6792;57.698;11.946;2023-07-31T02:38:07;21.80;53.40
13440;DHT22;6792;57.698;11.946;2023-07-31T02:40:48;21.80;53.30
13440;DHT22;6792;57.698;11.946;2023-07-31T02:43:22;21.80;52.90
13440;DHT22;6792;57.698;11.946;2023-07-31T02:45:57;21.70;52.90
13440;DHT22;6792;57.698;11.946;2023-07-31T02:48:28;21.80;53.40
13440;DHT22;6792;57.698;11.946;2023-07-31T02:51:16;21.70;52.90
13440;DHT22;6792;57.698;11.946;2023-07-31T02:54:00;21.80;52.90
13440;DHT22;6792;57.698;11.946;2023-07-31T02:56:30;21.80;52.90
13440;DHT22;6792;57.698;11.946;2023-07-31T02:59:13;21.80;53.40
13440;DHT22;6792;57.698;11.946;2023-07-31T03:01:45;21.80;53.50
13440;DHT22;6792;57.698;11.946;2023-07-31T03:04:18;21.80;53.50
13440;DHT22;6792;57.698;11.946;2023-07-31T03:06:56;21.80;53.60
13440;DHT22;6792;57.698;11.946;2023-07-31T03:09:37;21.80;53.50
13440;DHT22;6792;57.698;11.946;2023-07-31T03:12:09;21.80;53.50
13440;DHT22;6792;57.698;11.946;2023-07-31T03:14:40;21.70;53.50
13440;DHT22;6792;57.698;11.946;2023-07-31T03:17:15;21.70;53.50
13440;DHT22;6792;57.698;11.946;2023-07-31T03:19:52;21.70;53.60
13440;DHT22;6792;57.698;11.946;2023-07-31T03:22:33;21.70;53.60
13440;DHT22;6792;57.698;11.946;2023-07-31T03:25:01;21.70;53.60
13440;DHT22;6792;57.698;11.946;2023-07-31T03:27:34;21.70;53.60
13440;DHT22;6792;57.698;11.946;2023-07-31T03:30:10;21.80;53.70
13440;DHT22;6792;57.698;11.946;2023-07-31T03:32:47;21.80;53.70
13440;DHT22;6792;57.698;11.946;2023-07-31T03:35:18;21.70;53.20
13440;DHT22;6792;57.698;11.946;2023-07-31T03:37:55;21.70;53.20
13440;DHT22;6792;57.698;11.946;2023-07-31T03:40:27;21.70;53.30
13440;DHT22;6792;57.698;11.946;2023-07-31T03:43:05;21.70;53.40
13440;DHT22;6792;57.698;11.946;2023-07-31T03:45:36;21.60;53.90
13440;DHT22;6792;57.698;11.946;2023-07-31T03:51:13;21.60;53.50
13440;DHT22;6792;57.698;11.946;2023-07-31T03:53:57;21.60;54.00
13440;DHT22;6792;57.698;11.946;2023-07-31T03:56:40;21.70;53.60
13440;DHT22;6792;57.698;11.946;2023-07-31T03:59:20;21.70;53.60
13440;DHT22;6792;57.698;11.946;2023-07-31T04:01:53;21.70;53.50
13440;DHT22;6792;57.698;11.946;2023-07-31T04:04:38;21.70;54.10
13440;DHT22;6792;57.698;11.946;2023-07-31T04:07:16;21.70;53.60
13440;DHT22;6792;57.698;11.946;2023-07-31T04:09:45;21.80;54.10
13440;DHT22;6792;57.698;11.946;2023-07-31T04:12:14;21.80;54.10
13440;DHT22;6792;57.698;11.946;2023-07-31T04:14:43;21.80;54.10
13440;DHT22;6792;57.698;11.946;2023-07-31T04:17:12;21.80;54.20
13440;DHT22;6792;57.698;11.946;2023-07-31T04:19:41;21.80;54.20
13440;DHT22;6792;57.698;11.946;2023-07-31T04:22:11;21.80;54.20
13440;DHT22;6792;57.698;11.946;2023-07-31T04:24:40;21.80;54.20
13440;DHT22;6792;57.698;11.946;2023-07-31T04:27:09;21.80;54.30
13440;DHT22;6792;57.698;11.946;2023-07-31T04:29:40;21.80;54.30
13440;DHT22;6792;57.698;11.946;2023-07-31T04:32:10;21.80;54.30
13440;DHT22;6792;57.698;11.946;2023-07-31T04:34:39;21.80;54.50
13440;DHT22;6792;57.698;11.946;2023-07-31T04:39:37;21.80;54.00
13440;DHT22;6792;57.698;11.946;2023-07-31T04:42:06;21.80;54.60
13440;DHT22;6792;57.698;11.946;2023-07-31T04:44:36;21.80;54.60
13440;DHT22;6792;57.698;11.946;2023-07-31T04:47:05;21.80;54.60
13440;DHT22;6792;57.698;11.946;2023-07-31T04:49:34;21.80;54.60
13440;DHT22;6792;57.698;11.946;2023-07-31T04:52:05;21.80;54.60
13440;DHT22;6792;57.698;11.946;2023-07-31T04:54:34;21.90;54.60
13440;DHT22;6792;57.698;11.946;2023-07-31T04:57:04;21.90;54.70
13440;DHT22;6792;57.698;11.946;2023-07-31T04:59:34;21.90;54.70
13440;DHT22;6792;57.698;11.946;2023-07-31T05:02:04;21.90;54.70
13440;DHT22;6792;57.698;11.946;2023-07-31T05:04:33;22.00;54.70
13440;DHT22;6792;57.698;11.946;2023-07-31T05:07:02;22.00;54.80
13440;DHT22;6792;57.698;11.946;2023-07-31T05:09:31;22.00;54.80
13440;DHT22;6792;57.698;11.946;2023-07-31T05:12:00;22.00;54.70
13440;DHT22;6792;57.698;11.946;2023-07-31T05:14:30;22.10;54.80
13440;DHT22;6792;57.698;11.946;2023-07-31T05:17:11;22.10;54.70
13440;DHT22;6792;57.698;11.946;2023-07-31T05:19:44;22.10;54.20
13440;DHT22;6792;57.698;11.946;2023-07-31T05:22:16;22.10;54.80
13440;DHT22;6792;57.698;11.946;2023-07-31T05:24:45;22.20;54.80
13440;DHT22;6792;57.698;11.946;2023-07-31T05:27:15;22.20;54.90
13440;DHT22;6792;57.698;11.946;2023-07-31T05:29:45;22.20;55.40
13440;DHT22;6792;57.698;11.946;2023-07-31T05:32:15;22.20;54.80
13440;DHT22;6792;57.698;11.946;2023-07-31T05:34:44;22.20;54.30
13440;DHT22;6792;57.698;11.946;2023-07-31T05:37:16;22.20;54.90
13440;DHT22;6792;57.698;11.946;2023-07-31T05:39:45;22.30;54.90
13440;DHT22;6792;57.698;11.946;2023-07-31T05:42:15;22.30;54.90
13440;DHT22;6792;57.698;11.946;2023-07-31T05:44:44;22.40;54.90
13440;DHT22;6792;57.698;11.946;2023-07-31T05:47:13;22.40;54.50
13440;DHT22;6792;57.698;11.946;2023-07-31T05:49:45;22.50;54.90
13440;DHT22;6792;57.698;11.946;2023-07-31T05:52:14;22.60;54.90
13440;DHT22;6792;57.698;11.946;2023-07-31T05:54:43;22.60;54.30
13440;DHT22;6792;57.698;11.946;2023-07-31T05:57:14;22.70;54.80
13440;DHT22;6792;57.698;11.946;2023-07-31T05:59:43;22.80;54.70
13440;DHT22;6792;57.698;11.946;2023-07-31T06:02:12;22.80;54.60
13440;DHT22;6792;57.698;11.946;2023-07-31T06:04:42;22.90;54.60
13440;DHT22;6792;57.698;11.946;2023-07-31T06:07:11;22.90;54.50
13440;DHT22;6792;57.698;11.946;2023-07-31T06:09:40;22.90;54.50
13440;DHT22;6792;57.698;11.946;2023-07-31T06:12:09;23.00;54.40
13440;DHT22;6792;57.698;11.946;2023-07-31T06:14:39;23.00;54.30
13440;DHT22;6792;57.698;11.946;2023-07-31T06:17:08;23.00;54.20
13440;DHT22;6792;57.698;11.946;2023-07-31T06:19:37;23.00;54.20
13440;DHT22;6792;57.698;11.946;2023-07-31T06:22:07;23.10;54.10
13440;DHT22;6792;57.698;11.946;2023-07-31T06:24:36;23.10;54.10
13440;DHT22;6792;57.698;11.946;2023-07-31T06:27:06;23.10;54.00
13440;DHT22;6792;57.698;11.946;2023-07-31T06:29:37;23.10;54.00
13440;DHT22;6792;57.698;11.946;2023-07-31T06:32:07;23.10;53.90
13440;DHT22;6792;57.698;11.946;2023-07-31T06:34:36;23.10;53.90
13440;DHT22;6792;57.698;11.946;2023-07-31T06:37:06;23.10;53.80
13440;DHT22;6792;57.698;11.946;2023-07-31T06:39:35;23.10;53.80
13440;DHT22;6792;57.698;11.946;2023-07-31T06:42:06;23.10;53.80
13440;DHT22;6792;57.698;11.946;2023-07-31T06:44:35;23.10;53.70
13440;DHT22;6792;57.698;11.946;2023-07-31T06:47:05;23.10;53.70
13440;DHT22;6792;57.698;11.946;2023-07-31T06:49:37;23.10;53.70
13440;DHT22;6792;57.698;11.946;2023-07-31T06:52:07;23.10;53.60
13440;DHT22;6792;57.698;11.946;2023-07-31T06:54:37;23.10;53.60
13440;DHT22;6792;57.698;11.946;2023-07-31T06:57:07;23.10;53.50
13440;DHT22;6792;57.698;11.946;2023-07-31T06:59:36;23.10;53.50
13440;DHT22;6792;57.698;11.946;2023-07-31T07:02:06;23.10;53.50
13440;DHT22;6792;57.698;11.946;2023-07-31T07:04:36;23.00;53.50
13440;DHT22;6792;57.698;11.946;2023-07-31T07:07:05;23.00;53.50
13440;DHT22;6792;57.698;11.946;2023-07-31T07:09:35;23.00;53.50
13440;DHT22;6792;57.698;11.946;2023-07-31T07:12:04;23.00;53.50
13440;DHT22;6792;57.698;11.946;2023-07-31T07:14:34;23.00;53.60
13440;DHT22;6792;57.698;11.946;2023-07-31T07:17:03;23.00;53.60
13440;DHT22;6792;57.698;11.946;2023-07-31T07:19:32;22.90;53.60
13440;DHT22;6792;57.698;11.946;2023-07-31T07:22:01;22.90;53.70
13440;DHT22;6792;57.698;11.946;2023-07-31T07:24:31;23.00;53.80
13440;DHT22;6792;57.698;11.946;2023-07-31T07:27:00;22.90;53.80
13440;DHT22;6792;57.698;11.946;2023-07-31T07:29:29;22.90;53.90
13440;DHT22;6792;57.698;11.946;2023-07-31T07:31:59;22.90;53.90
13440;DHT22;6792;57.698;11.946;2023-07-31T07:34:29;22.90;54.00
13440;DHT22;6792;57.698;11.946;2023-07-31T07:36:58;22.90;54.10
13440;DHT22;6792;57.698;11.946;2023-07-31T07:39:27;22.80;54.10
13440;DHT22;6792;57.698;11.946;2023-07-31T07:41:56;22.80;54.10
13440;DHT22;6792;57.698;11.946;2023-07-31T07:44:25;22.80;54.30
13440;DHT22;6792;57.698;11.946;2023-07-31T07:46:55;22.80;54.30
13440;DHT22;6792;57.698;11.946;2023-07-31T07:49:24;22.80;54.50
13440;DHT22;6792;57.698;11.946;2023-07-31T07:51:53;22.80;54.40
13440;DHT22;6792;57.698;11.946;2023-07-31T07:54:22;22.90;54.50
13440;DHT22;6792;57.698;11.946;2023-07-31T07:56:51;22.90;54.50
13440;DHT22;6792;57.698;11.946;2023-07-31T07:59:23;22.90;54.50
13440;DHT22;6792;57.698;11.946;2023-07-31T08:01:52;22.90;54.50
13440;DHT22;6792;57.698;11.946;2023-07-31T08:04:21;22.90;54.50
13440;DHT22;6792;57.698;11.946;2023-07-31T08:09:30;22.90;54.50
13440;DHT22;6792;57.698;11.946;2023-07-31T08:11:59;22.90;54.50
13440;DHT22;6792;57.698;11.946;2023-07-31T08:14:30;22.90;54.50
13440;DHT22;6792;57.698;11.946;2023-07-31T08:17:00;22.90;54.30
13440;DHT22;6792;57.698;11.946;2023-07-31T08:19:29;22.90;54.20
13440;DHT22;6792;57.698;11.946;2023-07-31T08:21:58;22.90;54.20
13440;DHT22;6792;57.698;11.946;2023-07-31T08:24:27;22.90;54.00
13440;DHT22;6792;57.698;11.946;2023-07-31T08:26:57;22.90;53.90
13440;DHT22;6792;57.698;11.946;2023-07-31T08:29:26;22.90;53.80
13440;DHT22;6792;57.698;11.946;2023-07-31T08:31:55;22.90;53.90
13440;DHT22;6792;57.698;11.946;2023-07-31T08:34:25;23.00;53.80
13440;DHT22;6792;57.698;11.946;2023-07-31T08:36:54;23.00;53.80
13440;DHT22;6792;57.698;11.946;2023-07-31T08:39:23;23.00;53.70
13440;DHT22;6792;57.698;11.946;2023-07-31T08:41:54;23.00;53.80
13440;DHT22;6792;57.698;11.946;2023-07-31T08:44:25;23.10;53.80
13440;DHT22;6792;57.698;11.946;2023-07-31T08:46:54;23.10;53.70
13440;DHT22;6792;57.698;11.946;2023-07-31T08:49:24;23.10;53.20
13440;DHT22;6792;57.698;11.946;2023-07-31T08:51:55;23.10;53.00
13440;DHT22;6792;57.698;11.946;2023-07-31T08:54:25;23.10;52.90
13440;DHT22;6792;57.698;11.946;2023-07-31T08:56:57;23.10;52.80
13440;DHT22;6792;57.698;11.946;2023-07-31T08:59:30;23.10;52.80
13440;DHT22;6792;57.698;11.946;2023-07-31T09:02:03;23.10;52.80
13440;DHT22;6792;57.698;11.946;2023-07-31T09:04:33;23.00;52.60
13440;DHT22;6792;57.698;11.946;2023-07-31T09:07:04;23.00;52.70
13440;DHT22;6792;57.698;11.946;2023-07-31T09:09:34;23.00;52.70
13440;DHT22;6792;57.698;11.946;2023-07-31T09:12:04;23.00;52.60
13440;DHT22;6792;57.698;11.946;2023-07-31T09:14:34;23.00;53.20
13440;DHT22;6792;57.698;11.946;2023-07-31T09:17:04;23.00;52.50
13440;DHT22;6792;57.698;11.946;2023-07-31T09:19:35;23.10;53.10
13440;DHT22;6792;57.698;11.946;2023-07-31T09:22:06;23.10;52.90
13440;DHT22;6792;57.698;11.946;2023-07-31T09:24:35;23.00;52.80
13440;DHT22;6792;57.698;11.946;2023-07-31T09:27:06;23.10;52.90
13440;DHT22;6792;57.698;11.946;2023-07-31T09:29:35;23.10;52.40
13440;DHT22;6792;57.698;11.946;2023-07-31T09:32:05;23.10;52.80
13440;DHT22;6792;57.698;11.946;2023-07-31T09:34:39;23.10;52.80
13440;DHT22;6792;57.698;11.946;2023-07-31T09:37:08;23.10;52.20
13440;DHT22;6792;57.698;11.946;2023-07-31T09:39:47;23.20;52.20
13440;DHT22;6792;57.698;11.946;2023-07-31T09:42:26;23.20;52.10
13440;DHT22;6792;57.698;11.946;2023-07-31T09:45:02;23.20;52.60
13440;DHT22;6792;57.698;11.946;2023-07-31T09:47:33;23.20;52.60
13440;DHT22;6792;57.698;11.946;2023-07-31T09:50:02;23.30;52.50
13440;DHT22;6792;57.698;11.946;2023-07-31T09:52:33;23.30;51.90
13440;DHT22;6792;57.698;11.946;2023-07-31T09:55:02;23.40;52.40
13440;DHT22;6792;57.698;11.946;2023-07-31T09:57:32;23.30;51.80
13440;DHT22;6792;57.698;11.946;2023-07-31T10:00:02;23.40;52.30
13440;DHT22;6792;57.698;11.946;2023-07-31T10:02:33;23.50;52.20
13440;DHT22;6792;57.698;11.946;2023-07-31T10:05:04;23.50;52.10
13440;DHT22;6792;57.698;11.946;2023-07-31T10:07:36;23.50;52.00
13440;DHT22;6792;57.698;11.946;2023-07-31T10:10:08;23.50;51.90
13440;DHT22;6792;57.698;11.946;2023-07-31T10:12:38;23.50;51.90
13440;DHT22;6792;57.698;11.946;2023-07-31T10:15:10;23.50;52.00
13440;DHT22;6792;57.698;11.946;2023-07-31T10:17:39;23.60;51.90
13440;DHT22;6792;57.698;11.946;2023-07-31T10:20:10;23.50;51.90
13440;DHT22;6792;57.698;11.946;2023-07-31T10:22:40;23.60;51.90
13440;DHT22;6792;57.698;11.946;2023-07-31T10:25:19;23.60;52.00
13440;DHT22;6792;57.698;11.946;2023-07-31T10:27:53;23.60;51.90
13440;DHT22;6792;57.698;11.946;2023-07-31T10:30:32;23.70;51.80
13440;DHT22;6792;57.698;11.946;2023-07-31T10:35:43;23.80;51.80
13440;DHT22;6792;57.698;11.946;2023-07-31T10:38:13;23.80;51.70
13440;DHT22;6792;57.698;11.946;2023-07-31T10:40:42;23.80;51.50
13440;DHT22;6792;57.698;11.946;2023-07-31T10:43:24;23.80;51.40
13440;DHT22;6792;57.698;11.946;2023-07-31T10:45:54;23.80;50.80
13440;DHT22;6792;57.698;11.946;2023-07-31T10:48:24;23.90;50.90
13440;DHT22;6792;57.698;11.946;2023-07-31T10:50:55;23.90;51.40
13440;DHT22;6792;57.698;11.946;2023-07-31T10:53:26;24.00;51.40
13440;DHT22;6792;57.698;11.946;2023-07-31T10:55:59;24.10;51.50
13440;DHT22;6792;57.698;11.946;2023-07-31T10:58:28;24.20;50.90
13440;DHT22;6792;57.698;11.946;2023-07-31T11:01:01;24.30;51.30
13440;DHT22;6792;57.698;11.946;2023-07-31T11:03:45;24.40;51.20
13440;DHT22;6792;57.698;11.946;2023-07-31T11:06:15;24.50;50.50
13440;DHT22;6792;57.698;11.946;2023-07-31T11:08:45;24.50;51.00
13440;DHT22;6792;57.698;11.946;2023-07-31T11:11:16;24.60;50.90
13440;DHT22;6792;57.698;11.946;2023-07-31T11:13:47;24.70;50.80
13440;DHT22;6792;57.698;11.946;2023-07-31T11:16:19;24.80;50.00
13440;DHT22;6792;57.698;11.946;2023-07-31T11:18:51;24.90;50.40
13440;DHT22;6792;57.698;11.946;2023-07-31T11:21:24;24.90;50.20
13440;DHT22;6792;57.698;11.946;2023-07-31T11:23:56;24.90;50.00
13440;DHT22;6792;57.698;11.946;2023-07-31T11:26:25;24.90;49.90
13440;DHT22;6792;57.698;11.946;2023-07-31T11:28:55;24.90;49.80
13440;DHT22;6792;57.698;11.946;2023-07-31T11:31:24;24.90;49.70
13440;DHT22;6792;57.698;11.946;2023-07-31T11:34:04;24.90;49.70
13440;DHT22;6792;57.698;11.946;2023-07-31T11:36:33;25.00;49.70
13440;DHT22;6792;57.698;11.946;2023-07-31T11:39:07;25.00;49.60
13440;DHT22;6792;57.698;11.946;2023-07-31T11:41:36;25.10;49.40
13440;DHT22;6792;57.698;11.946;2023-07-31T11:44:07;25.20;49.30
13440;DHT22;6792;57.698;11.946;2023-07-31T11:46:37;25.20;48.60
13440;DHT22;6792;57.698;11.946;2023-07-31T11:49:06;25.30;48.50
13440;DHT22;6792;57.698;11.946;2023-07-31T11:51:36;25.40;48.30
13440;DHT22;6792;57.698;11.946;2023-07-31T11:54:05;25.40;48.70
13440;DHT22;6792;57.698;11.946;2023-07-31T11:56:34;25.50;48.40
13440;DHT22;6792;57.698;11.946;2023-07-31T11:59:04;25.50;48.30
13440;DHT22;6792;57.698;11.946;2023-07-31T12:01:35;25.50;48.10
13440;DHT22;6792;57.698;11.946;2023-07-31T12:04:05;25.50;48.10
13440;DHT22;6792;57.698;11.946;2023-07-31T12:06:35;25.50;48.00
13440;DHT22;6792;57.698;11.946;2023-07-31T12:09:05;25.50;47.90
13440;DHT22;6792;57.698;11.946;2023-07-31T12:11:44;25.60;47.90
13440;DHT22;6792;57.698;11.946;2023-07-31T12:14:21;25.70;47.80
13440;DHT22;6792;57.698;11.946;2023-07-31T12:16:55;25.80;47.70
13440;DHT22;6792;57.698;11.946;2023-07-31T12:19:26;25.90;47.60
13440;DHT22;6792;57.698;11.946;2023-07-31T12:22:00;25.90;47.40
13440;DHT22;6792;57.698;11.946;2023-07-31T12:24:29;25.90;47.30
13440;DHT22;6792;57.698;11.946;2023-07-31T12:27:08;25.90;47.30
13440;DHT22;6792;57.698;11.946;2023-07-31T12:29:41;26.00;47.30
13440;DHT22;6792;57.698;11.946;2023-07-31T12:32:21;26.10;47.20
13440;DHT22;6792;57.698;11.946;2023-07-31T12:34:54;26.10;47.10
13440;DHT22;6792;57.698;11.946;2023-07-31T12:37:23;26.10;47.20
13440;DHT22;6792;57.698;11.946;2023-07-31T12:39:54;26.20;47.10
13440;DHT22;6792;57.698;11.946;2023-07-31T12:42:27;26.30;46.80
13440;DHT22;6792;57.698;11.946;2023-07-31T12:44:56;26.40;46.80
13440;DHT22;6792;57.698;11.946;2023-07-31T12:47:28;26.50;46.60
13440;DHT22;6792;57.698;11.946;2023-07-31T12:49:57;26.70;46.20
13440;DHT22;6792;57.698;11.946;2023-07-31T12:52:26;26.70;46.00
13440;DHT22;6792;57.698;11.946;2023-07-31T12:54:57;26.80;45.90
13440;DHT22;6792;57.698;11.946;2023-07-31T12:57:26;26.80;45.10
13440;DHT22;6792;57.698;11.946;2023-07-31T12:59:55;26.70;45.60
13440;DHT22;6792;57.698;11.946;2023-07-31T13:02:25;26.80;45.80
13440;DHT22;6792;57.698;11.946;2023-07-31T13:04:55;26.80;45.80
13440;DHT22;6792;57.698;11.946;2023-07-31T13:07:28;26.90;45.80
13440;DHT22;6792;57.698;11.946;2023-07-31T13:09:57;27.10;45.30
13440;DHT22;6792;57.698;11.946;2023-07-31T13:12:27;27.30;45.00
13440;DHT22;6792;57.698;11.946;2023-07-31T13:14:56;27.40;45.10
13440;DHT22;6792;57.698;11.946;2023-07-31T13:17:25;27.40;44.80
13440;DHT22;6792;57.698;11.946;2023-07-31T13:19:56;27.40;44.60
13440;DHT22;6792;57.698;11.946;2023-07-31T13:22:26;27.30;44.60
13440;DHT22;6792;57.698;11.946;2023-07-31T13:24:57;27.30;44.70
13440;DHT22;6792;57.698;11.946;2023-07-31T13:27:38;27.20;44.50
13440;DHT22;6792;57.698;11.946;2023-07-31T13:30:09;27.20;44.50
13440;DHT22;6792;57.698;11.946;2023-07-31T13:32:38;27.10;44.40
13440;DHT22;6792;57.698;11.946;2023-07-31T13:35:08;27.10;44.50
13440;DHT22;6792;57.698;11.946;2023-07-31T13:37:39;27.00;44.50
13440;DHT22;6792;57.698;11.946;2023-07-31T13:40:10;26.80;44.60
13440;DHT22;6792;57.698;11.946;2023-07-31T13:42:43;26.70;44.60
13440;DHT22;6792;57.698;11.946;2023-07-31T13:45:16;26.60;44.20
13440;DHT22;6792;57.698;11.946;2023-07-31T13:47:47;26.60;45.00
13440;DHT22;6792;57.698;11.946;2023-07-31T13:50:19;26.50;44.90
13440;DHT22;6792;57.698;11.946;2023-07-31T13:52:56;26.50;45.00
13440;DHT22;6792;57.698;11.946;2023-07-31T13:55:25;26.40;45.60
13440;DHT22;6792;57.698;11.946;2023-07-31T13:57:57;26.40;45.00
13440;DHT22;6792;57.698;11.946;2023-07-31T14:00:29;26.40;45.10
13440;DHT22;6792;57.698;11.946;2023-07-31T14:03:00;26.30;44.50
13440;DHT22;6792;57.698;11.946;2023-07-31T14:05:29;26.20;45.10
13440;DHT22;6792;57.698;11.946;2023-07-31T14:07:58;26.20;45.20
13440;DHT22;6792;57.698;11.946;2023-07-31T14:10:30;26.20;45.40
13440;DHT22;6792;57.698;11.946;2023-07-31T14:13:01;26.10;45.40
13440;DHT22;6792;57.698;11.946;2023-07-31T14:15:31;26.00;45.50
13440;DHT22;6792;57.698;11.946;2023-07-31T14:18:00;25.90;45.70
13440;DHT22;6792;57.698;11.946;2023-07-31T14:20:30;25.80;45.90
13440;DHT22;6792;57.698;11.946;2023-07-31T14:22:59;25.70;46.20
13440;DHT22;6792;57.698;11.946;2023-07-31T14:25:29;25.70;46.60
13440;DHT22;6792;57.698;11.946;2023-07-31T14:27:59;25.70;46.90
13440;DHT22;6792;57.698;11.946;2023-07-31T14:30:31;25.70;47.20
13440;DHT22;6792;57.698;11.946;2023-07-31T14:33:02;25.80;47.40
13440;DHT22;6792;57.698;11.946;2023-07-31T14:35:31;25.80;47.80
13440;DHT22;6792;57.698;11.946;2023-07-31T14:38:03;25.90;48.00
13440;DHT22;6792;57.698;11.946;2023-07-31T14:40:32;26.00;47.90
13440;DHT22;6792;57.698;11.946;2023-07-31T14:43:01;25.90;47.80
13440;DHT22;6792;57.698;11.946;2023-07-31T14:45:30;25.90;47.90
13440;DHT22;6792;57.698;11.946;2023-07-31T14:48:04;25.90;48.00
13440;DHT22;6792;57.698;11.946;2023-07-31T14:50:36;25.80;48.00
13440;DHT22;6792;57.698;11.946;2023-07-31T14:53:05;25.80;48.20
13440;DHT22;6792;57.698;11.946;2023-07-31T14:55:38;25.80;48.30
13440;DHT22;6792;57.698;11.946;2023-07-31T14:58:09;25.80;48.30
13440;DHT22;6792;57.698;11.946;2023-07-31T15:00:59;25.70;48.20
13440;DHT22;6792;57.698;11.946;2023-07-31T15:03:39;25.60;47.90
13440;DHT22;6792;57.698;11.946;2023-07-31T15:06:12;25.60;48.40
13440;DHT22;6792;57.698;11.946;2023-07-31T15:08:48;25.60;48.50
13440;DHT22;6792;57.698;11.946;2023-07-31T15:11:26;25.50;48.10
13440;DHT22;6792;57.698;11.946;2023-07-31T15:13:58;25.50;48.80
13440;DHT22;6792;57.698;11.946;2023-07-31T15:16:29;25.50;48.80
13440;DHT22;6792;57.698;11.946;2023-07-31T15:18:59;25.40;48.20
13440;DHT22;6792;57.698;11.946;2023-07-31T15:21:31;25.40;48.90
13440;DHT22;6792;57.698;11.946;2023-07-31T15:24:04;25.40;49.00
13440;DHT22;6792;57.698;11.946;2023-07-31T15:26:40;25.30;48.50
13440;DHT22;6792;57.698;11.946;2023-07-31T15:29:10;25.20;49.10
13440;DHT22;6792;57.698;11.946;2023-07-31T15:31:44;25.20;49.10
13440;DHT22;6792;57.698;11.946;2023-07-31T15:34:15;25.20;49.20
13440;DHT22;6792;57.698;11.946;2023-07-31T15:36:49;25.20;49.30
13440;DHT22;6792;57.698;11.946;2023-07-31T15:39:31;25.20;48.90
13440;DHT22;6792;57.698;11.946;2023-07-31T15:44:48;25.10;48.80
13440;DHT22;6792;57.698;11.946;2023-07-31T15:47:25;25.00;49.30
13440;DHT22;6792;57.698;11.946;2023-07-31T15:49:57;25.00;49.30
13440;DHT22;6792;57.698;11.946;2023-07-31T15:52:33;25.00;49.50
13440;DHT22;6792;57.698;11.946;2023-07-31T15:55:02;24.90;49.60
13440;DHT22;6792;57.698;11.946;2023-07-31T15:57:35;24.90;49.70
13440;DHT22;6792;57.698;11.946;2023-07-31T16:00:09;24.90;49.80
13440;DHT22;6792;57.698;11.946;2023-07-31T16:02:39;24.90;49.80
13440;DHT22;6792;57.698;11.946;2023-07-31T16:05:12;24.90;49.90
13440;DHT22;6792;57.698;11.946;2023-07-31T16:07:49;24.80;49.90
13440;DHT22;6792;57.698;11.946;2023-07-31T16:10:22;24.80;50.00
13440;DHT22;6792;57.698;11.946;2023-07-31T16:12:51;24.80;50.10
13440;DHT22;6792;57.698;11.946;2023-07-31T16:15:23;24.80;50.30
13440;DHT22;6792;57.698;11.946;2023-07-31T16:17:56;24.80;50.40